sensor_id;sensor_type;location;lat;lon;timestamp;P1;durP1;ratioP1;P2;durP2;ratioP2
28523;SDS011;15734;50.904;6.922;2022-09-28T00:01:33;3.38;;;1.52;;
28523;SDS011;15734;50.904;6.922;2022-09-28T00:03:59;4.55;;;1.85;;
28523;SDS011;15734;50.904;6.922;2022-09-28T00:06:26;2.58;;;1.85;;
28523;SDS011;15734;50.904;6.922;2022-09-28T00:08:54;4.80;;;1.95;;
28523;SDS011;15734;50.904;6.922;2022-09-28T00:11:20;2.45;;;1.60;;
28523;SDS011;15734;50.904;6.922;2022-09-28T00:13:50;6.72;;;2.05;;
28523;SDS011;15734;50.904;6.922;2022-09-28T00:16:18;8.40;;;2.08;;
28523;SDS011;15734;50.904;6.922;2022-09-28T00:18:45;4.20;;;1.70;;
28523;SDS011;15734;50.904;6.922;2022-09-28T00:21:12;6.00;;;1.77;;
28523;SDS011;15734;50.904;6.922;2022-09-28T00:23:40;2.75;;;1.70;;
28523;SDS011;15734;50.904;6.922;2022-09-28T00:26:26;4.07;;;1.65;;
28523;SDS011;15734;50.904;6.922;2022-09-28T00:28:53;3.95;;;1.95;;
28523;SDS011;15734;50.904;6.922;2022-09-28T00:31:19;3.15;;;1.55;;
28523;SDS011;15734;50.904;6.922;2022-09-28T00:33:49;4.88;;;1.50;;
28523;SDS011;15734;50.904;6.922;2022-09-28T00:36:15;7.45;;;1.90;;
28523;SDS011;15734;50.904;6.922;2022-09-28T00:38:41;2.95;;;1.42;;
28523;SDS011;15734;50.904;6.922;2022-09-28T00:41:07;3.55;;;1.58;;
28523;SDS011;15734;50.904;6.922;2022-09-28T00:43:35;3.40;;;1.27;;
28523;SDS011;15734;50.904;6.922;2022-09-28T00:46:01;5.43;;;1.33;;
28523;SDS011;15734;50.904;6.922;2022-09-28T00:48:33;2.33;;;1.17;;
28523;SDS011;15734;50.904;6.922;2022-09-28T00:51:04;0.93;;;0.90;;
28523;SDS011;15734;50.904;6.922;2022-09-28T00:53:35;2.08;;;1.17;;
28523;SDS011;15734;50.904;6.922;2022-09-28T00:56:04;1.40;;;0.95;;
28523;SDS011;15734;50.904;6.922;2022-09-28T00:58:34;2.72;;;1.70;;
28523;SDS011;15734;50.904;6.922;2022-09-28T01:01:03;2.22;;;1.40;;
28523;SDS011;15734;50.904;6.922;2022-09-28T01:03:29;4.18;;;1.10;;
28523;SDS011;15734;50.904;6.922;2022-09-28T01:05:57;3.00;;;1.13;;
28523;SDS011;15734;50.904;6.922;2022-09-28T01:08:25;3.90;;;1.58;;
28523;SDS011;15734;50.904;6.922;2022-09-28T01:10:53;3.72;;;1.20;;
28523;SDS011;15734;50.904;6.922;2022-09-28T01:13:18;1.10;;;0.90;;
28523;SDS011;15734;50.904;6.922;2022-09-28T01:15:50;4.72;;;1.15;;
28523;SDS011;15734;50.904;6.922;2022-09-28T01:18:33;2.47;;;1.20;;
28523;SDS011;15734;50.904;6.922;2022-09-28T01:21:22;1.63;;;0.90;;
28523;SDS011;15734;50.904;6.922;2022-09-28T01:26:50;4.53;;;1.23;;
28523;SDS011;15734;50.904;6.922;2022-09-28T01:34:24;2.10;;;1.20;;
28523;SDS011;15734;50.904;6.922;2022-09-28T01:36:59;2.63;;;1.25;;
28523;SDS011;15734;50.904;6.922;2022-09-28T01:39:30;1.65;;;1.20;;
28523;SDS011;15734;50.904;6.922;2022-09-28T01:42:04;1.88;;;1.10;;
28523;SDS011;15734;50.904;6.922;2022-09-28T01:44:36;3.70;;;1.73;;
28523;SDS011;15734;50.904;6.922;2022-09-28T01:47:06;2.08;;;1.45;;
28523;SDS011;15734;50.904;6.922;2022-09-28T01:49:36;2.78;;;1.30;;
28523;SDS011;15734;50.904;6.922;2022-09-28T01:52:11;4.07;;;1.70;;
28523;SDS011;15734;50.904;6.922;2022-09-28T01:54:54;5.63;;;2.20;;
28523;SDS011;15734;50.904;6.922;2022-09-28T01:57:33;2.83;;;1.73;;
28523;SDS011;15734;50.904;6.922;2022-09-28T02:00:18;5.53;;;2.60;;
28523;SDS011;15734;50.904;6.922;2022-09-28T02:02:51;2.88;;;1.60;;
28523;SDS011;15734;50.904;6.922;2022-09-28T02:05:21;1.85;;;1.50;;
28523;SDS011;15734;50.904;6.922;2022-09-28T02:08:01;6.20;;;2.03;;
28523;SDS011;15734;50.904;6.922;2022-09-28T02:10:32;4.32;;;1.70;;
28523;SDS011;15734;50.904;6.922;2022-09-28T02:13:14;4.40;;;2.42;;
28523;SDS011;15734;50.904;6.922;2022-09-28T02:15:59;2.17;;;1.90;;
28523;SDS011;15734;50.904;6.922;2022-09-28T02:18:29;6.80;;;2.30;;
28523;SDS011;15734;50.904;6.922;2022-09-28T02:20:58;4.57;;;1.70;;
28523;SDS011;15734;50.904;6.922;2022-09-28T02:23:28;7.57;;;3.25;;
28523;SDS011;15734;50.904;6.922;2022-09-28T02:26:00;4.82;;;2.22;;
28523;SDS011;15734;50.904;6.922;2022-09-28T02:28:28;7.65;;;2.92;;
28523;SDS011;15734;50.904;6.922;2022-09-28T02:30:54;5.70;;;2.88;;
28523;SDS011;15734;50.904;6.922;2022-09-28T02:33:21;7.55;;;4.13;;
28523;SDS011;15734;50.904;6.922;2022-09-28T02:35:50;14.13;;;4.28;;
28523;SDS011;15734;50.904;6.922;2022-09-28T02:38:16;7.78;;;4.28;;
28523;SDS011;15734;50.904;6.922;2022-09-28T02:40:43;12.23;;;4.75;;
28523;SDS011;15734;50.904;6.922;2022-09-28T02:46:52;16.17;;;5.53;;
28523;SDS011;15734;50.904;6.922;2022-09-28T02:48:59;13.35;;;5.80;;
28523;SDS011;15734;50.904;6.922;2022-09-28T02:54:29;10.55;;;5.55;;
28523;SDS011;15734;50.904;6.922;2022-09-28T03:02:19;15.50;;;5.88;;
28523;SDS011;15734;50.904;6.922;2022-09-28T03:07:26;9.85;;;5.47;;
28523;SDS011;15734;50.904;6.922;2022-09-28T03:12:40;12.38;;;6.00;;
28523;SDS011;15734;50.904;6.922;2022-09-28T03:15:09;12.60;;;6.03;;
28523;SDS011;15734;50.904;6.922;2022-09-28T03:17:44;19.52;;;6.25;;
28523;SDS011;15734;50.904;6.922;2022-09-28T03:20:10;13.48;;;6.07;;
28523;SDS011;15734;50.904;6.922;2022-09-28T03:22:36;14.05;;;5.53;;
28523;SDS011;15734;50.904;6.922;2022-09-28T03:25:02;14.13;;;5.90;;
28523;SDS011;15734;50.904;6.922;2022-09-28T03:27:29;18.98;;;6.30;;
28523;SDS011;15734;50.904;6.922;2022-09-28T03:29:54;19.63;;;6.45;;
28523;SDS011;15734;50.904;6.922;2022-09-28T03:32:20;19.77;;;7.68;;
28523;SDS011;15734;50.904;6.922;2022-09-28T03:34:45;20.45;;;8.57;;
28523;SDS011;15734;50.904;6.922;2022-09-28T03:37:11;15.55;;;6.80;;
28523;SDS011;15734;50.904;6.922;2022-09-28T03:39:36;18.13;;;8.75;;
28523;SDS011;15734;50.904;6.922;2022-09-28T03:42:02;14.27;;;8.15;;
28523;SDS011;15734;50.904;6.922;2022-09-28T03:44:27;11.30;;;7.53;;
28523;SDS011;15734;50.904;6.922;2022-09-28T03:46:53;13.98;;;8.18;;
28523;SDS011;15734;50.904;6.922;2022-09-28T03:49:18;18.80;;;7.55;;
28523;SDS011;15734;50.904;6.922;2022-09-28T03:51:44;17.10;;;8.88;;
28523;SDS011;15734;50.904;6.922;2022-09-28T03:54:10;19.65;;;8.93;;
28523;SDS011;15734;50.904;6.922;2022-09-28T03:56:36;18.77;;;7.85;;
28523;SDS011;15734;50.904;6.922;2022-09-28T03:59:02;15.32;;;8.85;;
28523;SDS011;15734;50.904;6.922;2022-09-28T04:01:28;16.05;;;8.60;;
28523;SDS011;15734;50.904;6.922;2022-09-28T04:03:54;19.63;;;9.90;;
28523;SDS011;15734;50.904;6.922;2022-09-28T04:06:23;17.60;;;8.80;;
28523;SDS011;15734;50.904;6.922;2022-09-28T04:08:49;16.85;;;9.70;;
28523;SDS011;15734;50.904;6.922;2022-09-28T04:11:15;22.67;;;11.30;;
28523;SDS011;15734;50.904;6.922;2022-09-28T04:13:41;21.20;;;10.13;;
28523;SDS011;15734;50.904;6.922;2022-09-28T04:16:06;22.55;;;11.18;;
28523;SDS011;15734;50.904;6.922;2022-09-28T04:18:34;26.08;;;12.48;;
28523;SDS011;15734;50.904;6.922;2022-09-28T04:21:04;21.83;;;11.90;;
28523;SDS011;15734;50.904;6.922;2022-09-28T04:23:34;19.90;;;12.27;;
28523;SDS011;15734;50.904;6.922;2022-09-28T04:26:01;23.35;;;11.63;;
28523;SDS011;15734;50.904;6.922;2022-09-28T04:28:27;27.00;;;11.63;;
28523;SDS011;15734;50.904;6.922;2022-09-28T04:31:13;23.15;;;11.48;;
28523;SDS011;15734;50.904;6.922;2022-09-28T04:33:42;20.45;;;10.95;;
28523;SDS011;15734;50.904;6.922;2022-09-28T04:36:07;25.92;;;10.85;;
28523;SDS011;15734;50.904;6.922;2022-09-28T04:38:34;15.88;;;9.70;;
28523;SDS011;15734;50.904;6.922;2022-09-28T04:41:01;21.45;;;10.65;;
28523;SDS011;15734;50.904;6.922;2022-09-28T04:43:27;22.38;;;11.00;;
28523;SDS011;15734;50.904;6.922;2022-09-28T04:46:02;16.95;;;10.32;;
28523;SDS011;15734;50.904;6.922;2022-09-28T04:48:31;17.77;;;9.40;;
28523;SDS011;15734;50.904;6.922;2022-09-28T04:50:57;20.65;;;10.80;;
28523;SDS011;15734;50.904;6.922;2022-09-28T04:53:24;16.35;;;9.00;;
28523;SDS011;15734;50.904;6.922;2022-09-28T04:56:04;19.15;;;10.13;;
28523;SDS011;15734;50.904;6.922;2022-09-28T04:58:40;19.75;;;10.85;;
28523;SDS011;15734;50.904;6.922;2022-09-28T05:01:06;21.38;;;10.32;;
28523;SDS011;15734;50.904;6.922;2022-09-28T05:03:34;19.33;;;10.02;;
28523;SDS011;15734;50.904;6.922;2022-09-28T05:06:00;19.58;;;10.52;;
28523;SDS011;15734;50.904;6.922;2022-09-28T05:08:26;14.38;;;9.30;;
28523;SDS011;15734;50.904;6.922;2022-09-28T05:10:55;16.77;;;9.45;;
28523;SDS011;15734;50.904;6.922;2022-09-28T05:13:25;18.60;;;9.93;;
28523;SDS011;15734;50.904;6.922;2022-09-28T05:15:52;15.88;;;9.48;;
28523;SDS011;15734;50.904;6.922;2022-09-28T05:18:19;21.73;;;10.23;;
28523;SDS011;15734;50.904;6.922;2022-09-28T05:20:44;19.70;;;10.70;;
28523;SDS011;15734;50.904;6.922;2022-09-28T05:23:10;19.83;;;10.27;;
28523;SDS011;15734;50.904;6.922;2022-09-28T05:25:37;23.48;;;10.68;;
28523;SDS011;15734;50.904;6.922;2022-09-28T05:28:03;18.40;;;9.80;;
28523;SDS011;15734;50.904;6.922;2022-09-28T05:30:29;18.33;;;9.82;;
28523;SDS011;15734;50.904;6.922;2022-09-28T05:32:55;27.88;;;12.45;;
28523;SDS011;15734;50.904;6.922;2022-09-28T05:35:21;21.10;;;10.15;;
28523;SDS011;15734;50.904;6.922;2022-09-28T05:37:46;19.95;;;9.57;;
28523;SDS011;15734;50.904;6.922;2022-09-28T05:40:13;18.85;;;10.45;;
28523;SDS011;15734;50.904;6.922;2022-09-28T05:42:39;18.98;;;10.95;;
28523;SDS011;15734;50.904;6.922;2022-09-28T05:45:06;18.70;;;10.82;;
28523;SDS011;15734;50.904;6.922;2022-09-28T05:47:36;17.65;;;10.10;;
28523;SDS011;15734;50.904;6.922;2022-09-28T05:50:06;20.55;;;10.13;;
28523;SDS011;15734;50.904;6.922;2022-09-28T05:52:33;17.92;;;10.30;;
28523;SDS011;15734;50.904;6.922;2022-09-28T05:54:58;14.70;;;8.88;;
28523;SDS011;15734;50.904;6.922;2022-09-28T05:57:24;17.45;;;10.10;;
28523;SDS011;15734;50.904;6.922;2022-09-28T05:59:50;14.32;;;8.63;;
28523;SDS011;15734;50.904;6.922;2022-09-28T06:02:15;16.67;;;9.20;;
28523;SDS011;15734;50.904;6.922;2022-09-28T06:04:41;17.40;;;8.85;;
28523;SDS011;15734;50.904;6.922;2022-09-28T06:07:06;18.40;;;10.15;;
28523;SDS011;15734;50.904;6.922;2022-09-28T06:09:32;16.58;;;8.90;;
28523;SDS011;15734;50.904;6.922;2022-09-28T06:11:58;11.98;;;8.20;;
28523;SDS011;15734;50.904;6.922;2022-09-28T06:14:23;22.15;;;9.10;;
28523;SDS011;15734;50.904;6.922;2022-09-28T06:16:49;16.00;;;8.07;;
28523;SDS011;15734;50.904;6.922;2022-09-28T06:19:15;16.48;;;8.32;;
28523;SDS011;15734;50.904;6.922;2022-09-28T06:21:41;20.67;;;8.65;;
28523;SDS011;15734;50.904;6.922;2022-09-28T06:24:06;14.63;;;8.23;;
28523;SDS011;15734;50.904;6.922;2022-09-28T06:26:32;18.35;;;8.77;;
28523;SDS011;15734;50.904;6.922;2022-09-28T06:28:57;16.08;;;8.05;;
28523;SDS011;15734;50.904;6.922;2022-09-28T06:31:24;16.55;;;8.85;;
28523;SDS011;15734;50.904;6.922;2022-09-28T06:33:51;13.23;;;7.07;;
28523;SDS011;15734;50.904;6.922;2022-09-28T06:36:17;14.55;;;8.38;;
28523;SDS011;15734;50.904;6.922;2022-09-28T06:38:44;14.73;;;7.65;;
28523;SDS011;15734;50.904;6.922;2022-09-28T06:41:11;10.15;;;6.38;;
28523;SDS011;15734;50.904;6.922;2022-09-28T06:43:36;18.50;;;7.00;;
28523;SDS011;15734;50.904;6.922;2022-09-28T06:46:06;16.90;;;7.53;;
28523;SDS011;15734;50.904;6.922;2022-09-28T06:48:33;12.93;;;7.35;;
28523;SDS011;15734;50.904;6.922;2022-09-28T06:50:59;12.80;;;7.43;;
28523;SDS011;15734;50.904;6.922;2022-09-28T06:53:26;13.65;;;7.57;;
28523;SDS011;15734;50.904;6.922;2022-09-28T06:55:52;15.68;;;7.30;;
28523;SDS011;15734;50.904;6.922;2022-09-28T06:58:20;13.90;;;6.75;;
28523;SDS011;15734;50.904;6.922;2022-09-28T07:00:47;11.60;;;6.68;;
28523;SDS011;15734;50.904;6.922;2022-09-28T07:03:15;15.88;;;6.20;;
28523;SDS011;15734;50.904;6.922;2022-09-28T07:05:44;9.63;;;5.00;;
28523;SDS011;15734;50.904;6.922;2022-09-28T07:08:12;14.75;;;5.97;;
28523;SDS011;15734;50.904;6.922;2022-09-28T07:10:42;11.38;;;6.28;;
28523;SDS011;15734;50.904;6.922;2022-09-28T07:13:09;13.07;;;5.88;;
28523;SDS011;15734;50.904;6.922;2022-09-28T07:15:35;11.45;;;5.90;;
28523;SDS011;15734;50.904;6.922;2022-09-28T07:18:02;11.35;;;5.55;;
28523;SDS011;15734;50.904;6.922;2022-09-28T07:20:30;9.00;;;5.55;;
28523;SDS011;15734;50.904;6.922;2022-09-28T07:23:00;10.38;;;5.82;;
28523;SDS011;15734;50.904;6.922;2022-09-28T07:25:28;8.77;;;5.30;;
28523;SDS011;15734;50.904;6.922;2022-09-28T07:27:57;11.38;;;5.07;;
28523;SDS011;15734;50.904;6.922;2022-09-28T07:30:24;8.90;;;5.47;;
28523;SDS011;15734;50.904;6.922;2022-09-28T07:32:51;11.32;;;5.10;;
28523;SDS011;15734;50.904;6.922;2022-09-28T07:35:17;9.60;;;5.38;;
28523;SDS011;15734;50.904;6.922;2022-09-28T07:37:43;8.75;;;4.90;;
28523;SDS011;15734;50.904;6.922;2022-09-28T07:40:09;11.38;;;5.25;;
28523;SDS011;15734;50.904;6.922;2022-09-28T07:42:53;10.18;;;4.85;;
28523;SDS011;15734;50.904;6.922;2022-09-28T07:45:19;8.80;;;4.90;;
28523;SDS011;15734;50.904;6.922;2022-09-28T07:47:48;13.20;;;4.53;;
28523;SDS011;15734;50.904;6.922;2022-09-28T07:50:14;10.55;;;4.93;;
28523;SDS011;15734;50.904;6.922;2022-09-28T07:52:40;8.85;;;4.13;;
28523;SDS011;15734;50.904;6.922;2022-09-28T07:55:08;11.20;;;4.60;;
28523;SDS011;15734;50.904;6.922;2022-09-28T07:57:33;9.77;;;3.55;;
28523;SDS011;15734;50.904;6.922;2022-09-28T08:00:00;6.82;;;4.30;;
28523;SDS011;15734;50.904;6.922;2022-09-28T08:02:27;13.57;;;4.70;;
28523;SDS011;15734;50.904;6.922;2022-09-28T08:04:57;8.98;;;5.25;;
28523;SDS011;15734;50.904;6.922;2022-09-28T08:07:23;11.30;;;5.30;;
28523;SDS011;15734;50.904;6.922;2022-09-28T08:09:49;8.65;;;4.47;;
28523;SDS011;15734;50.904;6.922;2022-09-28T08:12:15;9.32;;;4.68;;
28523;SDS011;15734;50.904;6.922;2022-09-28T08:14:43;13.65;;;3.42;;
28523;SDS011;15734;50.904;6.922;2022-09-28T08:17:09;5.43;;;3.50;;
28523;SDS011;15734;50.904;6.922;2022-09-28T08:19:35;9.48;;;4.22;;
28523;SDS011;15734;50.904;6.922;2022-09-28T08:22:19;9.23;;;4.25;;
28523;SDS011;15734;50.904;6.922;2022-09-28T08:24:45;13.00;;;3.65;;
28523;SDS011;15734;50.904;6.922;2022-09-28T08:27:12;7.93;;;3.38;;
28523;SDS011;15734;50.904;6.922;2022-09-28T08:29:39;4.75;;;3.13;;
28523;SDS011;15734;50.904;6.922;2022-09-28T08:32:07;4.28;;;2.70;;
28523;SDS011;15734;50.904;6.922;2022-09-28T08:34:34;7.68;;;3.03;;
28523;SDS011;15734;50.904;6.922;2022-09-28T08:37:04;8.07;;;3.08;;
28523;SDS011;15734;50.904;6.922;2022-09-28T08:39:31;10.48;;;3.75;;
28523;SDS011;15734;50.904;6.922;2022-09-28T08:44:56;6.00;;;3.33;;
28523;SDS011;15734;50.904;6.922;2022-09-28T08:50:50;5.38;;;3.20;;
28523;SDS011;15734;50.904;6.922;2022-09-28T08:53:31;9.35;;;3.22;;
28523;SDS011;15734;50.904;6.922;2022-09-28T08:56:00;11.68;;;3.17;;
28523;SDS011;15734;50.904;6.922;2022-09-28T08:58:31;5.07;;;2.60;;
28523;SDS011;15734;50.904;6.922;2022-09-28T09:01:00;10.13;;;2.33;;
28523;SDS011;15734;50.904;6.922;2022-09-28T09:03:28;2.63;;;1.90;;
28523;SDS011;15734;50.904;6.922;2022-09-28T09:08:46;6.63;;;2.00;;
28523;SDS011;15734;50.904;6.922;2022-09-28T09:16:23;4.82;;;1.30;;
28523;SDS011;15734;50.904;6.922;2022-09-28T09:19:26;8.02;;;1.88;;
28523;SDS011;15734;50.904;6.922;2022-09-28T09:22:16;6.13;;;2.10;;
28523;SDS011;15734;50.904;6.922;2022-09-28T09:24:50;9.13;;;1.55;;
28523;SDS011;15734;50.904;6.922;2022-09-28T09:27:28;3.05;;;1.20;;
28523;SDS011;15734;50.904;6.922;2022-09-28T09:30:15;3.33;;;1.20;;
28523;SDS011;15734;50.904;6.922;2022-09-28T09:50:09;13.05;;;1.55;;
28523;SDS011;15734;50.904;6.922;2022-09-28T09:57:40;5.18;;;1.67;;
28523;SDS011;15734;50.904;6.922;2022-09-28T10:00:27;8.20;;;1.92;;
28523;SDS011;15734;50.904;6.922;2022-09-28T10:02:53;1.92;;;0.60;;
28523;SDS011;15734;50.904;6.922;2022-09-28T10:05:22;5.13;;;1.63;;
28523;SDS011;15734;50.904;6.922;2022-09-28T10:07:53;6.55;;;0.85;;
28523;SDS011;15734;50.904;6.922;2022-09-28T10:10:25;2.88;;;0.95;;
28523;SDS011;15734;50.904;6.922;2022-09-28T10:12:59;0.65;;;0.40;;
28523;SDS011;15734;50.904;6.922;2022-09-28T10:15:29;2.17;;;0.65;;
28523;SDS011;15734;50.904;6.922;2022-09-28T10:18:01;3.80;;;1.23;;
28523;SDS011;15734;50.904;6.922;2022-09-28T10:20:31;1.55;;;0.50;;
28523;SDS011;15734;50.904;6.922;2022-09-28T10:23:02;8.27;;;0.68;;
28523;SDS011;15734;50.904;6.922;2022-09-28T10:25:30;4.10;;;0.85;;
28523;SDS011;15734;50.904;6.922;2022-09-28T10:27:57;9.00;;;0.70;;
28523;SDS011;15734;50.904;6.922;2022-09-28T10:30:25;2.40;;;0.70;;
28523;SDS011;15734;50.904;6.922;2022-09-28T10:32:51;7.50;;;1.00;;
28523;SDS011;15734;50.904;6.922;2022-09-28T10:40:25;2.42;;;0.60;;
28523;SDS011;15734;50.904;6.922;2022-09-28T10:43:04;2.65;;;0.80;;
28523;SDS011;15734;50.904;6.922;2022-09-28T10:45:47;1.80;;;0.70;;
28523;SDS011;15734;50.904;6.922;2022-09-28T10:48:23;2.58;;;0.65;;
28523;SDS011;15734;50.904;6.922;2022-09-28T10:50:58;1.67;;;0.82;;
28523;SDS011;15734;50.904;6.922;2022-09-28T10:53:28;2.50;;;0.82;;
28523;SDS011;15734;50.904;6.922;2022-09-28T10:56:00;4.75;;;1.20;;
28523;SDS011;15734;50.904;6.922;2022-09-28T10:58:39;1.40;;;0.80;;
28523;SDS011;15734;50.904;6.922;2022-09-28T11:01:09;1.90;;;1.00;;
28523;SDS011;15734;50.904;6.922;2022-09-28T11:03:48;2.03;;;1.00;;
28523;SDS011;15734;50.904;6.922;2022-09-28T11:06:22;1.58;;;0.82;;
28523;SDS011;15734;50.904;6.922;2022-09-28T11:09:21;6.15;;;1.00;;
28523;SDS011;15734;50.904;6.922;2022-09-28T11:11:58;7.95;;;1.25;;
28523;SDS011;15734;50.904;6.922;2022-09-28T11:14:33;4.95;;;0.93;;
28523;SDS011;15734;50.904;6.922;2022-09-28T11:19:59;1.52;;;0.90;;
28523;SDS011;15734;50.904;6.922;2022-09-28T11:22:45;2.13;;;1.10;;
28523;SDS011;15734;50.904;6.922;2022-09-28T11:27:40;4.03;;;1.92;;
28523;SDS011;15734;50.904;6.922;2022-09-28T11:35:50;6.07;;;1.17;;
28523;SDS011;15734;50.904;6.922;2022-09-28T11:46:52;4.40;;;0.98;;
28523;SDS011;15734;50.904;6.922;2022-09-28T11:49:34;2.10;;;0.80;;
28523;SDS011;15734;50.904;6.922;2022-09-28T11:52:22;5.95;;;0.82;;
28523;SDS011;15734;50.904;6.922;2022-09-28T11:57:21;2.85;;;0.70;;
28523;SDS011;15734;50.904;6.922;2022-09-28T12:02:28;5.47;;;0.70;;
28523;SDS011;15734;50.904;6.922;2022-09-28T12:07:54;0.63;;;0.40;;
28523;SDS011;15734;50.904;6.922;2022-09-28T12:12:58;1.33;;;0.40;;
28523;SDS011;15734;50.904;6.922;2022-09-28T12:15:29;2.28;;;0.55;;
28523;SDS011;15734;50.904;6.922;2022-09-28T12:18:06;3.03;;;0.57;;
28523;SDS011;15734;50.904;6.922;2022-09-28T12:20:41;1.98;;;0.55;;
28523;SDS011;15734;50.904;6.922;2022-09-28T12:23:34;2.65;;;0.63;;
28523;SDS011;15734;50.904;6.922;2022-09-28T12:26:03;3.22;;;0.45;;
28523;SDS011;15734;50.904;6.922;2022-09-28T12:28:40;0.47;;;0.43;;
28523;SDS011;15734;50.904;6.922;2022-09-28T12:31:16;2.63;;;0.50;;
28523;SDS011;15734;50.904;6.922;2022-09-28T12:33:44;4.28;;;0.60;;
28523;SDS011;15734;50.904;6.922;2022-09-28T12:49:32;4.13;;;0.68;;
28523;SDS011;15734;50.904;6.922;2022-09-28T13:00:33;1.92;;;1.00;;
28523;SDS011;15734;50.904;6.922;2022-09-28T13:06:24;3.28;;;0.93;;
28523;SDS011;15734;50.904;6.922;2022-09-28T13:12:01;1.38;;;0.68;;
28523;SDS011;15734;50.904;6.922;2022-09-28T13:17:31;2.80;;;0.95;;
28523;SDS011;15734;50.904;6.922;2022-09-28T13:20:18;5.43;;;0.63;;
28523;SDS011;15734;50.904;6.922;2022-09-28T13:23:21;3.53;;;0.63;;
28523;SDS011;15734;50.904;6.922;2022-09-28T13:26:02;3.92;;;0.63;;
28523;SDS011;15734;50.904;6.922;2022-09-28T13:28:44;7.38;;;1.13;;
28523;SDS011;15734;50.904;6.922;2022-09-28T13:31:11;4.57;;;0.82;;
28523;SDS011;15734;50.904;6.922;2022-09-28T13:33:44;1.77;;;0.70;;
28523;SDS011;15734;50.904;6.922;2022-09-28T13:38:52;4.28;;;0.63;;
28523;SDS011;15734;50.904;6.922;2022-09-28T13:41:29;6.13;;;0.80;;
28523;SDS011;15734;50.904;6.922;2022-09-28T13:52:46;4.13;;;1.00;;
28523;SDS011;15734;50.904;6.922;2022-09-28T14:00:51;2.13;;;0.80;;
28523;SDS011;15734;50.904;6.922;2022-09-28T14:06:28;2.78;;;0.70;;
28523;SDS011;15734;50.904;6.922;2022-09-28T14:11:42;2.47;;;0.68;;
28523;SDS011;15734;50.904;6.922;2022-09-28T14:14:23;1.48;;;0.65;;
28523;SDS011;15734;50.904;6.922;2022-09-28T14:16:50;8.00;;;0.80;;
28523;SDS011;15734;50.904;6.922;2022-09-28T14:19:42;3.22;;;0.70;;
28523;SDS011;15734;50.904;6.922;2022-09-28T14:25:12;4.47;;;0.57;;
28523;SDS011;15734;50.904;6.922;2022-09-28T14:31:08;3.65;;;0.77;;
28523;SDS011;15734;50.904;6.922;2022-09-28T14:36:01;6.10;;;1.08;;
28523;SDS011;15734;50.904;6.922;2022-09-28T14:38:34;5.88;;;0.90;;
28523;SDS011;15734;50.904;6.922;2022-09-28T14:44:07;2.95;;;1.05;;
28523;SDS011;15734;50.904;6.922;2022-09-28T14:46:35;10.77;;;1.20;;
28523;SDS011;15734;50.904;6.922;2022-09-28T14:51:42;5.32;;;1.48;;
28523;SDS011;15734;50.904;6.922;2022-09-28T14:56:57;7.57;;;1.05;;
28523;SDS011;15734;50.904;6.922;2022-09-28T14:59:41;8.82;;;1.00;;
28523;SDS011;15734;50.904;6.922;2022-09-28T15:04:55;5.85;;;1.30;;
28523;SDS011;15734;50.904;6.922;2022-09-28T15:09:57;2.97;;;1.02;;
28523;SDS011;15734;50.904;6.922;2022-09-28T15:12:27;3.13;;;0.80;;
28523;SDS011;15734;50.904;6.922;2022-09-28T15:14:57;13.90;;;0.98;;
28523;SDS011;15734;50.904;6.922;2022-09-28T15:17:29;1.10;;;0.60;;
28523;SDS011;15734;50.904;6.922;2022-09-28T15:22:48;2.35;;;0.77;;
28523;SDS011;15734;50.904;6.922;2022-09-28T15:25:19;1.52;;;0.60;;
28523;SDS011;15734;50.904;6.922;2022-09-28T15:27:58;5.80;;;0.70;;
28523;SDS011;15734;50.904;6.922;2022-09-28T15:30:33;4.85;;;0.63;;
28523;SDS011;15734;50.904;6.922;2022-09-28T15:33:01;0.65;;;0.63;;
28523;SDS011;15734;50.904;6.922;2022-09-28T15:35:52;1.63;;;0.63;;
28523;SDS011;15734;50.904;6.922;2022-09-28T15:38:26;1.55;;;0.70;;
28523;SDS011;15734;50.904;6.922;2022-09-28T15:40:53;1.67;;;0.70;;
28523;SDS011;15734;50.904;6.922;2022-09-28T15:43:20;1.77;;;0.80;;
28523;SDS011;15734;50.904;6.922;2022-09-28T15:51:17;2.08;;;0.52;;
28523;SDS011;15734;50.904;6.922;2022-09-28T15:54:02;5.35;;;0.80;;
28523;SDS011;15734;50.904;6.922;2022-09-28T15:56:52;1.42;;;0.85;;
28523;SDS011;15734;50.904;6.922;2022-09-28T15:59:26;4.05;;;0.90;;
28523;SDS011;15734;50.904;6.922;2022-09-28T16:02:22;6.00;;;1.10;;
28523;SDS011;15734;50.904;6.922;2022-09-28T16:07:22;5.65;;;0.90;;
28523;SDS011;15734;50.904;6.922;2022-09-28T16:09:52;2.27;;;1.07;;
28523;SDS011;15734;50.904;6.922;2022-09-28T16:12:39;5.32;;;1.08;;
28523;SDS011;15734;50.904;6.922;2022-09-28T16:15:27;1.88;;;0.80;;
28523;SDS011;15734;50.904;6.922;2022-09-28T16:18:14;2.78;;;0.57;;
28523;SDS011;15734;50.904;6.922;2022-09-28T16:20:45;1.05;;;0.70;;
28523;SDS011;15734;50.904;6.922;2022-09-28T16:33:28;0.60;;;0.60;;
28523;SDS011;15734;50.904;6.922;2022-09-28T16:36:02;1.52;;;0.57;;
28523;SDS011;15734;50.904;6.922;2022-09-28T16:38:34;1.15;;;0.45;;
28523;SDS011;15734;50.904;6.922;2022-09-28T16:41:02;1.42;;;0.52;;
28523;SDS011;15734;50.904;6.922;2022-09-28T16:43:29;0.50;;;0.50;;
28523;SDS011;15734;50.904;6.922;2022-09-28T16:48:33;1.50;;;0.50;;
28523;SDS011;15734;50.904;6.922;2022-09-28T16:51:03;1.90;;;0.52;;
28523;SDS011;15734;50.904;6.922;2022-09-28T16:53:29;2.20;;;0.47;;
28523;SDS011;15734;50.904;6.922;2022-09-28T16:56:21;1.15;;;0.35;;
28523;SDS011;15734;50.904;6.922;2022-09-28T16:58:46;1.77;;;0.50;;
28523;SDS011;15734;50.904;6.922;2022-09-28T17:01:13;2.55;;;0.30;;
28523;SDS011;15734;50.904;6.922;2022-09-28T17:03:38;0.50;;;0.32;;
28523;SDS011;15734;50.904;6.922;2022-09-28T17:06:08;2.83;;;0.90;;
28523;SDS011;15734;50.904;6.922;2022-09-28T17:08:36;4.43;;;2.15;;
28523;SDS011;15734;50.904;6.922;2022-09-28T17:11:01;10.80;;;5.22;;
28523;SDS011;15734;50.904;6.922;2022-09-28T17:13:28;4.60;;;1.30;;
28523;SDS011;15734;50.904;6.922;2022-09-28T17:15:59;2.03;;;0.60;;
28523;SDS011;15734;50.904;6.922;2022-09-28T17:18:26;1.27;;;0.60;;
28523;SDS011;15734;50.904;6.922;2022-09-28T17:20:55;1.42;;;0.60;;
28523;SDS011;15734;50.904;6.922;2022-09-28T17:23:23;3.83;;;1.20;;
28523;SDS011;15734;50.904;6.922;2022-09-28T17:25:49;2.35;;;0.90;;
28523;SDS011;15734;50.904;6.922;2022-09-28T17:28:19;1.70;;;0.60;;
28523;SDS011;15734;50.904;6.922;2022-09-28T17:30:48;3.72;;;0.73;;
28523;SDS011;15734;50.904;6.922;2022-09-28T17:33:13;0.70;;;0.60;;
28523;SDS011;15734;50.904;6.922;2022-09-28T17:35:39;2.50;;;0.80;;
28523;SDS011;15734;50.904;6.922;2022-09-28T17:38:08;2.17;;;0.68;;
28523;SDS011;15734;50.904;6.922;2022-09-28T17:40:35;3.72;;;0.80;;
28523;SDS011;15734;50.904;6.922;2022-09-28T17:43:01;1.92;;;0.90;;
28523;SDS011;15734;50.904;6.922;2022-09-28T17:45:29;2.67;;;0.70;;
28523;SDS011;15734;50.904;6.922;2022-09-28T17:47:56;0.82;;;0.82;;
28523;SDS011;15734;50.904;6.922;2022-09-28T17:50:26;3.83;;;1.42;;
28523;SDS011;15734;50.904;6.922;2022-09-28T17:52:53;9.02;;;2.22;;
28523;SDS011;15734;50.904;6.922;2022-09-28T17:55:23;1.85;;;1.50;;
28523;SDS011;15734;50.904;6.922;2022-09-28T17:57:51;2.80;;;2.10;;
28523;SDS011;15734;50.904;6.922;2022-09-28T18:00:17;4.70;;;1.63;;
28523;SDS011;15734;50.904;6.922;2022-09-28T18:02:43;2.45;;;1.70;;
28523;SDS011;15734;50.904;6.922;2022-09-28T18:05:09;5.18;;;2.25;;
28523;SDS011;15734;50.904;6.922;2022-09-28T18:07:38;4.88;;;2.67;;
28523;SDS011;15734;50.904;6.922;2022-09-28T18:10:06;4.97;;;2.22;;
28523;SDS011;15734;50.904;6.922;2022-09-28T18:12:31;1.48;;;1.20;;
28523;SDS011;15734;50.904;6.922;2022-09-28T18:14:58;3.85;;;0.93;;
28523;SDS011;15734;50.904;6.922;2022-09-28T18:17:23;2.67;;;1.05;;